sensor_id;sensor_type;location;lat;lon;timestamp;P1;durP1;ratioP1;P2;durP2;ratioP2
12601;SDS011;30282;16.436;99.370;2023-02-01T00:01:39;186.53;;;88.37;;
12601;SDS011;30282;16.436;99.370;2023-02-01T00:04:08;161.73;;;86.57;;
12601;SDS011;30282;16.436;99.370;2023-02-01T00:06:37;146.63;;;83.17;;
12601;SDS011;30282;16.436;99.370;2023-02-01T00:09:06;139.60;;;82.30;;
12601;SDS011;30282;16.436;99.370;2023-02-01T00:11:38;144.60;;;82.63;;
12601;SDS011;30282;16.436;99.370;2023-02-01T00:14:09;129.33;;;76.57;;
12601;SDS011;30282;16.436;99.370;2023-02-01T00:16:38;121.20;;;72.23;;
12601;SDS011;30282;16.436;99.370;2023-02-01T00:19:09;117.00;;;69.03;;
12601;SDS011;30282;16.436;99.370;2023-02-01T00:21:39;90.63;;;58.77;;
12601;SDS011;30282;16.436;99.370;2023-02-01T00:24:09;94.57;;;58.63;;
12601;SDS011;30282;16.436;99.370;2023-02-01T00:26:41;99.20;;;58.90;;
12601;SDS011;30282;16.436;99.370;2023-02-01T00:29:12;84.57;;;55.30;;
12601;SDS011;30282;16.436;99.370;2023-02-01T00:31:44;97.53;;;56.70;;
12601;SDS011;30282;16.436;99.370;2023-02-01T00:34:14;106.93;;;63.90;;
12601;SDS011;30282;16.436;99.370;2023-02-01T00:36:44;105.50;;;62.17;;
12601;SDS011;30282;16.436;99.370;2023-02-01T00:39:13;105.50;;;63.50;;
12601;SDS011;30282;16.436;99.370;2023-02-01T00:41:45;102.43;;;64.17;;
12601;SDS011;30282;16.436;99.370;2023-02-01T00:44:14;107.90;;;65.20;;
12601;SDS011;30282;16.436;99.370;2023-02-01T00:46:43;121.63;;;73.10;;
12601;SDS011;30282;16.436;99.370;2023-02-01T00:49:12;115.20;;;74.03;;
12601;SDS011;30282;16.436;99.370;2023-02-01T00:51:41;130.50;;;84.47;;
12601;SDS011;30282;16.436;99.370;2023-02-01T00:54:09;136.83;;;87.67;;
12601;SDS011;30282;16.436;99.370;2023-02-01T00:56:38;178.90;;;104.67;;
12601;SDS011;30282;16.436;99.370;2023-02-01T00:59:10;140.00;;;94.33;;
12601;SDS011;30282;16.436;99.370;2023-02-01T01:01:39;163.87;;;100.87;;
12601;SDS011;30282;16.436;99.370;2023-02-01T01:04:08;156.93;;;107.67;;
12601;SDS011;30282;16.436;99.370;2023-02-01T01:06:37;163.10;;;109.27;;
12601;SDS011;30282;16.436;99.370;2023-02-01T01:09:06;156.23;;;107.20;;
12601;SDS011;30282;16.436;99.370;2023-02-01T01:11:36;155.60;;;95.63;;
12601;SDS011;30282;16.436;99.370;2023-02-01T01:14:06;151.57;;;95.90;;
12601;SDS011;30282;16.436;99.370;2023-02-01T01:16:37;140.60;;;94.13;;
12601;SDS011;30282;16.436;99.370;2023-02-01T01:19:05;135.03;;;85.03;;
12601;SDS011;30282;16.436;99.370;2023-02-01T01:21:34;126.27;;;78.37;;
12601;SDS011;30282;16.436;99.370;2023-02-01T01:24:03;106.27;;;72.03;;
12601;SDS011;30282;16.436;99.370;2023-02-01T01:26:33;107.47;;;71.70;;
12601;SDS011;30282;16.436;99.370;2023-02-01T01:29:02;114.03;;;68.70;;
12601;SDS011;30282;16.436;99.370;2023-02-01T01:31:33;114.60;;;72.77;;
12601;SDS011;30282;16.436;99.370;2023-02-01T01:34:02;109.07;;;72.17;;
12601;SDS011;30282;16.436;99.370;2023-02-01T01:36:31;113.77;;;76.97;;
12601;SDS011;30282;16.436;99.370;2023-02-01T01:39:00;126.97;;;82.10;;
12601;SDS011;30282;16.436;99.370;2023-02-01T01:41:30;141.93;;;87.97;;
12601;SDS011;30282;16.436;99.370;2023-02-01T01:44:00;139.37;;;87.87;;
12601;SDS011;30282;16.436;99.370;2023-02-01T01:46:32;139.47;;;90.20;;
12601;SDS011;30282;16.436;99.370;2023-02-01T01:49:05;150.27;;;88.97;;
12601;SDS011;30282;16.436;99.370;2023-02-01T01:51:37;138.27;;;89.40;;
12601;SDS011;30282;16.436;99.370;2023-02-01T01:54:11;146.40;;;84.67;;
12601;SDS011;30282;16.436;99.370;2023-02-01T01:56:43;129.50;;;85.53;;
12601;SDS011;30282;16.436;99.370;2023-02-01T01:59:16;114.10;;;78.37;;
12601;SDS011;30282;16.436;99.370;2023-02-01T02:01:48;115.27;;;73.63;;
12601;SDS011;30282;16.436;99.370;2023-02-01T02:04:18;104.77;;;68.43;;
12601;SDS011;30282;16.436;99.370;2023-02-01T02:06:48;110.43;;;66.50;;
12601;SDS011;30282;16.436;99.370;2023-02-01T02:09:21;103.40;;;65.53;;
12601;SDS011;30282;16.436;99.370;2023-02-01T02:11:50;101.63;;;60.33;;
12601;SDS011;30282;16.436;99.370;2023-02-01T02:14:19;75.83;;;45.30;;
12601;SDS011;30282;16.436;99.370;2023-02-01T02:26:35;74.40;;;46.80;;
12601;SDS011;30282;16.436;99.370;2023-02-01T02:29:35;83.97;;;45.60;;
12601;SDS011;30282;16.436;99.370;2023-02-01T02:35:29;66.93;;;44.13;;
12601;SDS011;30282;16.436;99.370;2023-02-01T02:38:12;67.93;;;44.40;;
12601;SDS011;30282;16.436;99.370;2023-02-01T02:40:46;65.17;;;41.97;;
12601;SDS011;30282;16.436;99.370;2023-02-01T02:43:21;77.47;;;47.20;;
12601;SDS011;30282;16.436;99.370;2023-02-01T02:46:12;69.57;;;44.23;;
12601;SDS011;30282;16.436;99.370;2023-02-01T02:49:06;221.70;;;51.50;;
12601;SDS011;30282;16.436;99.370;2023-02-01T02:51:42;117.07;;;46.83;;
12601;SDS011;30282;16.436;99.370;2023-02-01T02:54:30;65.60;;;44.10;;
12601;SDS011;30282;16.436;99.370;2023-02-01T02:57:24;82.43;;;42.53;;
12601;SDS011;30282;16.436;99.370;2023-02-01T03:00:13;71.90;;;43.80;;
12601;SDS011;30282;16.436;99.370;2023-02-01T03:03:01;67.20;;;43.60;;
12601;SDS011;30282;16.436;99.370;2023-02-01T03:05:47;71.40;;;42.30;;
12601;SDS011;30282;16.436;99.370;2023-02-01T03:08:20;58.57;;;38.03;;
12601;SDS011;30282;16.436;99.370;2023-02-01T03:10:53;61.47;;;41.20;;
12601;SDS011;30282;16.436;99.370;2023-02-01T03:13:28;65.93;;;41.90;;
12601;SDS011;30282;16.436;99.370;2023-02-01T03:16:02;59.70;;;39.60;;
12601;SDS011;30282;16.436;99.370;2023-02-01T03:18:36;86.13;;;43.40;;
12601;SDS011;30282;16.436;99.370;2023-02-01T03:21:11;82.00;;;41.90;;
12601;SDS011;30282;16.436;99.370;2023-02-01T03:23:46;64.77;;;40.87;;
12601;SDS011;30282;16.436;99.370;2023-02-01T03:26:17;68.67;;;43.83;;
12601;SDS011;30282;16.436;99.370;2023-02-01T03:28:56;76.30;;;43.40;;
12601;SDS011;30282;16.436;99.370;2023-02-01T03:31:30;66.17;;;42.27;;
12601;SDS011;30282;16.436;99.370;2023-02-01T03:33:59;82.53;;;43.13;;
12601;SDS011;30282;16.436;99.370;2023-02-01T03:36:29;73.07;;;49.50;;
12601;SDS011;30282;16.436;99.370;2023-02-01T03:39:05;74.10;;;44.47;;
12601;SDS011;30282;16.436;99.370;2023-02-01T03:41:40;67.47;;;44.57;;
12601;SDS011;30282;16.436;99.370;2023-02-01T03:44:12;67.43;;;42.73;;
12601;SDS011;30282;16.436;99.370;2023-02-01T03:46:45;78.50;;;44.60;;
12601;SDS011;30282;16.436;99.370;2023-02-01T03:49:19;68.93;;;43.17;;
12601;SDS011;30282;16.436;99.370;2023-02-01T03:51:53;63.07;;;42.40;;
12601;SDS011;30282;16.436;99.370;2023-02-01T03:54:27;62.63;;;41.17;;
12601;SDS011;30282;16.436;99.370;2023-02-01T03:56:59;68.83;;;43.30;;
12601;SDS011;30282;16.436;99.370;2023-02-01T03:59:30;64.33;;;40.30;;
12601;SDS011;30282;16.436;99.370;2023-02-01T04:01:59;71.07;;;43.30;;
12601;SDS011;30282;16.436;99.370;2023-02-01T04:04:28;71.93;;;43.53;;
12601;SDS011;30282;16.436;99.370;2023-02-01T04:06:58;61.40;;;40.27;;
12601;SDS011;30282;16.436;99.370;2023-02-01T04:09:29;60.10;;;42.23;;
12601;SDS011;30282;16.436;99.370;2023-02-01T04:11:58;60.63;;;43.10;;
12601;SDS011;30282;16.436;99.370;2023-02-01T04:14:28;63.67;;;41.50;;
12601;SDS011;30282;16.436;99.370;2023-02-01T04:16:57;60.13;;;42.23;;
12601;SDS011;30282;16.436;99.370;2023-02-01T04:19:26;58.30;;;40.43;;
12601;SDS011;30282;16.436;99.370;2023-02-01T04:21:55;74.60;;;42.00;;
12601;SDS011;30282;16.436;99.370;2023-02-01T04:24:24;78.23;;;46.10;;
12601;SDS011;30282;16.436;99.370;2023-02-01T04:26:55;69.97;;;47.43;;
12601;SDS011;30282;16.436;99.370;2023-02-01T04:29:24;65.10;;;48.00;;
12601;SDS011;30282;16.436;99.370;2023-02-01T04:31:53;75.87;;;46.67;;
12601;SDS011;30282;16.436;99.370;2023-02-01T04:34:22;79.13;;;47.73;;
12601;SDS011;30282;16.436;99.370;2023-02-01T04:36:52;78.67;;;46.27;;
12601;SDS011;30282;16.436;99.370;2023-02-01T04:39:21;76.20;;;47.70;;
12601;SDS011;30282;16.436;99.370;2023-02-01T04:41:50;96.20;;;53.20;;
12601;SDS011;30282;16.436;99.370;2023-02-01T04:44:21;82.60;;;53.73;;
12601;SDS011;30282;16.436;99.370;2023-02-01T04:46:50;79.63;;;51.40;;
12601;SDS011;30282;16.436;99.370;2023-02-01T04:49:20;71.10;;;46.57;;
12601;SDS011;30282;16.436;99.370;2023-02-01T04:51:51;78.80;;;51.20;;
12601;SDS011;30282;16.436;99.370;2023-02-01T04:54:20;73.90;;;48.33;;
12601;SDS011;30282;16.436;99.370;2023-02-01T04:56:48;73.17;;;51.87;;
12601;SDS011;30282;16.436;99.370;2023-02-01T04:59:17;73.20;;;52.40;;
12601;SDS011;30282;16.436;99.370;2023-02-01T05:01:48;80.60;;;52.00;;
12601;SDS011;30282;16.436;99.370;2023-02-01T05:04:17;81.70;;;49.70;;
12601;SDS011;30282;16.436;99.370;2023-02-01T05:06:47;93.30;;;51.80;;
12601;SDS011;30282;16.436;99.370;2023-02-01T05:09:16;80.80;;;54.23;;
12601;SDS011;30282;16.436;99.370;2023-02-01T05:11:44;71.63;;;53.50;;
12601;SDS011;30282;16.436;99.370;2023-02-01T05:14:30;80.90;;;55.97;;
12601;SDS011;30282;16.436;99.370;2023-02-01T05:17:01;89.20;;;60.27;;
12601;SDS011;30282;16.436;99.370;2023-02-01T05:19:30;91.47;;;61.23;;
12601;SDS011;30282;16.436;99.370;2023-02-01T05:21:59;98.67;;;67.40;;
12601;SDS011;30282;16.436;99.370;2023-02-01T05:24:27;114.93;;;67.20;;
12601;SDS011;30282;16.436;99.370;2023-02-01T05:26:56;97.40;;;61.93;;
12601;SDS011;30282;16.436;99.370;2023-02-01T05:29:25;90.27;;;61.20;;
12601;SDS011;30282;16.436;99.370;2023-02-01T05:31:54;94.83;;;60.03;;
12601;SDS011;30282;16.436;99.370;2023-02-01T05:34:25;84.50;;;59.20;;
12601;SDS011;30282;16.436;99.370;2023-02-01T05:36:54;96.27;;;57.00;;
12601;SDS011;30282;16.436;99.370;2023-02-01T05:39:23;81.70;;;56.00;;
12601;SDS011;30282;16.436;99.370;2023-02-01T05:41:52;90.10;;;54.90;;
12601;SDS011;30282;16.436;99.370;2023-02-01T05:44:21;79.80;;;50.57;;
12601;SDS011;30282;16.436;99.370;2023-02-01T05:46:50;78.33;;;51.73;;
12601;SDS011;30282;16.436;99.370;2023-02-01T05:49:19;82.27;;;52.03;;
12601;SDS011;30282;16.436;99.370;2023-02-01T05:51:50;81.87;;;50.23;;
12601;SDS011;30282;16.436;99.370;2023-02-01T05:54:19;72.17;;;52.00;;
12601;SDS011;30282;16.436;99.370;2023-02-01T05:56:49;84.23;;;54.17;;
12601;SDS011;30282;16.436;99.370;2023-02-01T05:59:18;91.57;;;56.60;;
12601;SDS011;30282;16.436;99.370;2023-02-01T06:01:47;84.30;;;55.00;;
12601;SDS011;30282;16.436;99.370;2023-02-01T06:04:16;81.07;;;54.80;;
12601;SDS011;30282;16.436;99.370;2023-02-01T06:06:45;86.47;;;58.97;;
12601;SDS011;30282;16.436;99.370;2023-02-01T06:09:17;85.30;;;55.70;;
12601;SDS011;30282;16.436;99.370;2023-02-01T06:11:47;97.53;;;56.60;;
12601;SDS011;30282;16.436;99.370;2023-02-01T06:14:16;80.40;;;54.80;;
12601;SDS011;30282;16.436;99.370;2023-02-01T06:16:45;80.40;;;52.20;;
12601;SDS011;30282;16.436;99.370;2023-02-01T06:19:15;77.87;;;54.63;;
12601;SDS011;30282;16.436;99.370;2023-02-01T06:21:44;82.37;;;53.00;;
12601;SDS011;30282;16.436;99.370;2023-02-01T06:24:13;76.23;;;54.10;;
12601;SDS011;30282;16.436;99.370;2023-02-01T06:26:44;75.37;;;55.87;;
12601;SDS011;30282;16.436;99.370;2023-02-01T06:29:14;80.93;;;54.63;;
12601;SDS011;30282;16.436;99.370;2023-02-01T06:31:43;80.33;;;56.97;;
12601;SDS011;30282;16.436;99.370;2023-02-01T06:34:12;78.00;;;58.40;;
12601;SDS011;30282;16.436;99.370;2023-02-01T06:36:41;83.13;;;54.90;;
12601;SDS011;30282;16.436;99.370;2023-02-01T06:39:10;77.63;;;52.53;;
12601;SDS011;30282;16.436;99.370;2023-02-01T06:41:41;87.37;;;51.40;;
12601;SDS011;30282;16.436;99.370;2023-02-01T06:44:14;70.30;;;50.80;;
12601;SDS011;30282;16.436;99.370;2023-02-01T06:46:43;69.13;;;50.97;;
12601;SDS011;30282;16.436;99.370;2023-02-01T06:49:12;91.50;;;51.70;;
12601;SDS011;30282;16.436;99.370;2023-02-01T06:51:41;70.37;;;50.47;;
12601;SDS011;30282;16.436;99.370;2023-02-01T06:54:11;77.20;;;51.93;;
12601;SDS011;30282;16.436;99.370;2023-02-01T06:56:40;74.63;;;52.57;;
12601;SDS011;30282;16.436;99.370;2023-02-01T06:59:11;73.97;;;50.60;;
12601;SDS011;30282;16.436;99.370;2023-02-01T07:01:40;78.00;;;52.67;;
12601;SDS011;30282;16.436;99.370;2023-02-01T07:04:10;71.10;;;50.70;;
12601;SDS011;30282;16.436;99.370;2023-02-01T07:06:39;66.30;;;47.50;;
12601;SDS011;30282;16.436;99.370;2023-02-01T07:09:08;68.27;;;47.27;;
12601;SDS011;30282;16.436;99.370;2023-02-01T07:11:37;104.70;;;53.47;;
12601;SDS011;30282;16.436;99.370;2023-02-01T07:14:09;68.03;;;51.80;;
12601;SDS011;30282;16.436;99.370;2023-02-01T07:16:40;79.93;;;52.70;;
12601;SDS011;30282;16.436;99.370;2023-02-01T07:19:09;74.37;;;54.83;;
12601;SDS011;30282;16.436;99.370;2023-02-01T07:21:39;76.07;;;53.73;;
12601;SDS011;30282;16.436;99.370;2023-02-01T07:24:08;83.07;;;55.33;;
12601;SDS011;30282;16.436;99.370;2023-02-01T07:26:37;75.10;;;53.73;;
12601;SDS011;30282;16.436;99.370;2023-02-01T07:29:06;85.13;;;52.60;;
12601;SDS011;30282;16.436;99.370;2023-02-01T07:31:37;86.27;;;53.43;;
12601;SDS011;30282;16.436;99.370;2023-02-01T07:34:06;88.10;;;53.23;;
12601;SDS011;30282;16.436;99.370;2023-02-01T07:36:35;91.30;;;52.40;;
12601;SDS011;30282;16.436;99.370;2023-02-01T07:39:04;77.47;;;50.60;;
12601;SDS011;30282;16.436;99.370;2023-02-01T07:41:34;87.07;;;49.93;;
12601;SDS011;30282;16.436;99.370;2023-02-01T07:44:03;75.30;;;48.97;;
12601;SDS011;30282;16.436;99.370;2023-02-01T07:46:33;80.97;;;51.47;;
12601;SDS011;30282;16.436;99.370;2023-02-01T07:49:03;85.27;;;56.30;;
12601;SDS011;30282;16.436;99.370;2023-02-01T07:51:33;85.07;;;53.10;;
12601;SDS011;30282;16.436;99.370;2023-02-01T07:54:02;76.97;;;51.47;;
12601;SDS011;30282;16.436;99.370;2023-02-01T07:56:31;73.80;;;52.10;;
12601;SDS011;30282;16.436;99.370;2023-02-01T07:59:00;90.87;;;53.07;;
12601;SDS011;30282;16.436;99.370;2023-02-01T08:01:29;72.30;;;50.80;;
12601;SDS011;30282;16.436;99.370;2023-02-01T08:03:57;72.43;;;49.40;;
12601;SDS011;30282;16.436;99.370;2023-02-01T08:06:29;86.03;;;52.20;;
12601;SDS011;30282;16.436;99.370;2023-02-01T08:08:59;79.30;;;50.33;;
12601;SDS011;30282;16.436;99.370;2023-02-01T08:11:28;74.63;;;49.20;;
12601;SDS011;30282;16.436;99.370;2023-02-01T08:13:57;68.03;;;51.60;;
12601;SDS011;30282;16.436;99.370;2023-02-01T08:16:27;78.70;;;52.23;;
12601;SDS011;30282;16.436;99.370;2023-02-01T08:18:56;89.23;;;53.40;;
12601;SDS011;30282;16.436;99.370;2023-02-01T08:21:26;82.97;;;49.90;;
12601;SDS011;30282;16.436;99.370;2023-02-01T08:24:03;72.87;;;51.10;;
12601;SDS011;30282;16.436;99.370;2023-02-01T08:26:33;74.63;;;50.80;;
12601;SDS011;30282;16.436;99.370;2023-02-01T08:29:02;79.30;;;48.07;;
12601;SDS011;30282;16.436;99.370;2023-02-01T08:31:32;69.83;;;47.33;;
12601;SDS011;30282;16.436;99.370;2023-02-01T08:34:01;68.90;;;46.87;;
12601;SDS011;30282;16.436;99.370;2023-02-01T08:36:33;68.03;;;45.93;;
12601;SDS011;30282;16.436;99.370;2023-02-01T08:39:03;67.53;;;48.73;;
12601;SDS011;30282;16.436;99.370;2023-02-01T08:41:34;77.30;;;49.47;;
12601;SDS011;30282;16.436;99.370;2023-02-01T08:44:03;71.47;;;50.80;;
12601;SDS011;30282;16.436;99.370;2023-02-01T08:46:33;72.70;;;49.27;;
12601;SDS011;30282;16.436;99.370;2023-02-01T08:49:02;61.13;;;46.73;;
12601;SDS011;30282;16.436;99.370;2023-02-01T08:51:33;74.27;;;49.30;;
12601;SDS011;30282;16.436;99.370;2023-02-01T08:54:02;71.33;;;47.60;;
12601;SDS011;30282;16.436;99.370;2023-02-01T08:56:33;71.20;;;47.40;;
12601;SDS011;30282;16.436;99.370;2023-02-01T08:59:03;74.20;;;46.93;;
12601;SDS011;30282;16.436;99.370;2023-02-01T09:01:32;75.00;;;48.00;;
12601;SDS011;30282;16.436;99.370;2023-02-01T09:04:01;78.80;;;47.97;;
12601;SDS011;30282;16.436;99.370;2023-02-01T09:06:30;68.73;;;45.27;;
12601;SDS011;30282;16.436;99.370;2023-02-01T09:09:00;81.07;;;46.60;;
12601;SDS011;30282;16.436;99.370;2023-02-01T09:11:30;83.67;;;44.83;;
12601;SDS011;30282;16.436;99.370;2023-02-01T09:13:58;64.73;;;42.67;;
12601;SDS011;30282;16.436;99.370;2023-02-01T09:16:28;67.83;;;43.90;;
12601;SDS011;30282;16.436;99.370;2023-02-01T09:19:00;58.40;;;41.50;;
12601;SDS011;30282;16.436;99.370;2023-02-01T09:21:29;79.83;;;40.60;;
12601;SDS011;30282;16.436;99.370;2023-02-01T09:24:00;106.00;;;40.57;;
12601;SDS011;30282;16.436;99.370;2023-02-01T09:26:29;64.77;;;40.93;;
12601;SDS011;30282;16.436;99.370;2023-02-01T09:28:59;78.20;;;40.30;;
12601;SDS011;30282;16.436;99.370;2023-02-01T09:31:29;62.20;;;38.07;;
12601;SDS011;30282;16.436;99.370;2023-02-01T09:33:58;54.47;;;37.47;;
12601;SDS011;30282;16.436;99.370;2023-02-01T09:36:27;63.27;;;39.60;;
12601;SDS011;30282;16.436;99.370;2023-02-01T09:38:56;65.47;;;37.70;;
12601;SDS011;30282;16.436;99.370;2023-02-01T09:41:29;66.27;;;39.67;;
12601;SDS011;30282;16.436;99.370;2023-02-01T09:44:08;57.43;;;39.17;;
12601;SDS011;30282;16.436;99.370;2023-02-01T09:46:49;60.23;;;36.47;;
12601;SDS011;30282;16.436;99.370;2023-02-01T09:49:24;60.33;;;38.20;;
12601;SDS011;30282;16.436;99.370;2023-02-01T09:51:56;54.67;;;35.70;;
12601;SDS011;30282;16.436;99.370;2023-02-01T09:54:34;64.40;;;38.90;;
12601;SDS011;30282;16.436;99.370;2023-02-01T09:57:13;76.57;;;37.83;;
12601;SDS011;30282;16.436;99.370;2023-02-01T09:59:49;60.93;;;37.40;;
12601;SDS011;30282;16.436;99.370;2023-02-01T10:02:23;68.23;;;38.93;;
12601;SDS011;30282;16.436;99.370;2023-02-01T10:04:54;59.20;;;37.07;;
12601;SDS011;30282;16.436;99.370;2023-02-01T10:07:29;55.40;;;37.63;;
12601;SDS011;30282;16.436;99.370;2023-02-01T10:10:09;85.97;;;36.43;;
12601;SDS011;30282;16.436;99.370;2023-02-01T10:12:53;65.13;;;37.90;;
12601;SDS011;30282;16.436;99.370;2023-02-01T10:15:51;54.97;;;36.00;;
12601;SDS011;30282;16.436;99.370;2023-02-01T10:18:31;54.50;;;37.60;;
12601;SDS011;30282;16.436;99.370;2023-02-01T10:21:08;53.67;;;35.00;;
12601;SDS011;30282;16.436;99.370;2023-02-01T10:23:50;52.67;;;34.00;;
12601;SDS011;30282;16.436;99.370;2023-02-01T10:26:38;57.20;;;35.17;;
12601;SDS011;30282;16.436;99.370;2023-02-01T10:29:14;57.30;;;34.97;;
12601;SDS011;30282;16.436;99.370;2023-02-01T10:31:46;71.97;;;36.57;;
12601;SDS011;30282;16.436;99.370;2023-02-01T10:34:17;62.10;;;37.57;;
12601;SDS011;30282;16.436;99.370;2023-02-01T10:36:55;74.83;;;38.67;;
12601;SDS011;30282;16.436;99.370;2023-02-01T10:39:27;49.57;;;37.10;;
12601;SDS011;30282;16.436;99.370;2023-02-01T10:41:56;60.60;;;36.97;;
12601;SDS011;30282;16.436;99.370;2023-02-01T10:44:27;60.50;;;37.40;;
12601;SDS011;30282;16.436;99.370;2023-02-01T10:46:58;56.60;;;35.87;;
12601;SDS011;30282;16.436;99.370;2023-02-01T10:49:28;60.27;;;37.80;;
12601;SDS011;30282;16.436;99.370;2023-02-01T10:52:07;70.73;;;39.10;;
12601;SDS011;30282;16.436;99.370;2023-02-01T10:54:42;66.67;;;41.97;;
12601;SDS011;30282;16.436;99.370;2023-02-01T10:57:20;77.50;;;46.20;;
12601;SDS011;30282;16.436;99.370;2023-02-01T10:59:53;76.40;;;46.73;;
12601;SDS011;30282;16.436;99.370;2023-02-01T11:02:25;70.33;;;43.67;;
12601;SDS011;30282;16.436;99.370;2023-02-01T11:04:59;81.60;;;44.10;;
12601;SDS011;30282;16.436;99.370;2023-02-01T11:07:29;73.30;;;46.30;;
12601;SDS011;30282;16.436;99.370;2023-02-01T11:09:58;84.37;;;46.77;;
12601;SDS011;30282;16.436;99.370;2023-02-01T11:12:29;77.67;;;43.97;;
12601;SDS011;30282;16.436;99.370;2023-02-01T11:15:12;80.50;;;44.00;;
12601;SDS011;30282;16.436;99.370;2023-02-01T11:17:46;78.10;;;41.90;;
12601;SDS011;30282;16.436;99.370;2023-02-01T11:20:17;78.00;;;42.40;;
12601;SDS011;30282;16.436;99.370;2023-02-01T11:22:48;62.87;;;39.00;;
12601;SDS011;30282;16.436;99.370;2023-02-01T11:25:22;69.33;;;37.77;;
12601;SDS011;30282;16.436;99.370;2023-02-01T11:27:55;68.77;;;41.07;;
12601;SDS011;30282;16.436;99.370;2023-02-01T11:30:30;67.30;;;40.40;;
12601;SDS011;30282;16.436;99.370;2023-02-01T11:33:03;85.70;;;42.80;;
12601;SDS011;30282;16.436;99.370;2023-02-01T11:35:32;79.37;;;42.50;;
12601;SDS011;30282;16.436;99.370;2023-02-01T11:38:10;66.40;;;42.87;;
12601;SDS011;30282;16.436;99.370;2023-02-01T11:40:49;139.90;;;41.83;;
12601;SDS011;30282;16.436;99.370;2023-02-01T11:43:22;85.90;;;40.90;;
12601;SDS011;30282;16.436;99.370;2023-02-01T11:45:58;73.30;;;43.00;;
12601;SDS011;30282;16.436;99.370;2023-02-01T11:48:29;64.00;;;41.80;;
12601;SDS011;30282;16.436;99.370;2023-02-01T11:51:11;86.57;;;41.03;;
12601;SDS011;30282;16.436;99.370;2023-02-01T11:53:57;76.47;;;43.30;;
12601;SDS011;30282;16.436;99.370;2023-02-01T11:56:40;72.90;;;45.57;;
12601;SDS011;30282;16.436;99.370;2023-02-01T11:59:23;69.73;;;47.03;;
12601;SDS011;30282;16.436;99.370;2023-02-01T12:02:15;67.23;;;46.90;;
12601;SDS011;30282;16.436;99.370;2023-02-01T12:05:12;69.67;;;44.43;;
12601;SDS011;30282;16.436;99.370;2023-02-01T12:07:57;78.60;;;48.10;;
12601;SDS011;30282;16.436;99.370;2023-02-01T12:10:51;98.20;;;50.40;;
12601;SDS011;30282;16.436;99.370;2023-02-01T12:13:36;85.07;;;50.63;;
12601;SDS011;30282;16.436;99.370;2023-02-01T12:16:19;80.07;;;52.33;;
12601;SDS011;30282;16.436;99.370;2023-02-01T12:19:16;87.00;;;55.57;;
12601;SDS011;30282;16.436;99.370;2023-02-01T12:21:57;79.33;;;53.93;;
12601;SDS011;30282;16.436;99.370;2023-02-01T12:24:48;75.63;;;54.60;;
12601;SDS011;30282;16.436;99.370;2023-02-01T12:27:48;107.87;;;54.77;;
12601;SDS011;30282;16.436;99.370;2023-02-01T12:30:44;108.23;;;55.80;;
12601;SDS011;30282;16.436;99.370;2023-02-01T12:33:36;112.17;;;61.80;;
12601;SDS011;30282;16.436;99.370;2023-02-01T12:36:18;126.87;;;64.27;;
12601;SDS011;30282;16.436;99.370;2023-02-01T12:38:53;141.53;;;67.60;;
12601;SDS011;30282;16.436;99.370;2023-02-01T12:41:31;122.10;;;62.90;;
12601;SDS011;30282;16.436;99.370;2023-02-01T12:44:17;150.10;;;66.93;;
12601;SDS011;30282;16.436;99.370;2023-02-01T12:47:04;123.23;;;65.53;;
12601;SDS011;30282;16.436;99.370;2023-02-01T12:49:45;123.80;;;61.67;;
12601;SDS011;30282;16.436;99.370;2023-02-01T12:52:24;95.07;;;54.60;;
12601;SDS011;30282;16.436;99.370;2023-02-01T12:55:02;90.73;;;54.03;;
12601;SDS011;30282;16.436;99.370;2023-02-01T12:57:37;87.30;;;53.37;;
12601;SDS011;30282;16.436;99.370;2023-02-01T13:00:14;86.60;;;52.77;;
12601;SDS011;30282;16.436;99.370;2023-02-01T13:02:51;98.50;;;57.60;;
12601;SDS011;30282;16.436;99.370;2023-02-01T13:05:27;89.30;;;56.40;;
12601;SDS011;30282;16.436;99.370;2023-02-01T13:08:02;104.03;;;56.67;;
12601;SDS011;30282;16.436;99.370;2023-02-01T13:10:36;98.30;;;55.77;;
12601;SDS011;30282;16.436;99.370;2023-02-01T13:13:10;102.13;;;56.00;;
12601;SDS011;30282;16.436;99.370;2023-02-01T13:15:46;96.57;;;59.13;;
12601;SDS011;30282;16.436;99.370;2023-02-01T13:18:24;106.00;;;56.30;;
12601;SDS011;30282;16.436;99.370;2023-02-01T13:21:02;106.93;;;58.30;;
12601;SDS011;30282;16.436;99.370;2023-02-01T13:23:36;196.20;;;87.17;;
12601;SDS011;30282;16.436;99.370;2023-02-01T13:26:07;193.33;;;89.97;;
12601;SDS011;30282;16.436;99.370;2023-02-01T13:28:39;188.93;;;88.10;;
12601;SDS011;30282;16.436;99.370;2023-02-01T13:31:20;264.10;;;116.27;;
12601;SDS011;30282;16.436;99.370;2023-02-01T13:34:38;202.43;;;86.03;;
12601;SDS011;30282;16.436;99.370;2023-02-01T13:37:28;152.63;;;72.93;;
12601;SDS011;30282;16.436;99.370;2023-02-01T13:40:16;136.63;;;71.63;;
12601;SDS011;30282;16.436;99.370;2023-02-01T13:42:53;143.80;;;74.67;;
12601;SDS011;30282;16.436;99.370;2023-02-01T13:45:26;130.13;;;69.47;;
12601;SDS011;30282;16.436;99.370;2023-02-01T13:47:59;121.27;;;68.10;;
12601;SDS011;30282;16.436;99.370;2023-02-01T13:50:31;127.10;;;68.70;;
12601;SDS011;30282;16.436;99.370;2023-02-01T13:53:03;118.03;;;70.13;;
12601;SDS011;30282;16.436;99.370;2023-02-01T13:55:44;118.13;;;68.30;;
12601;SDS011;30282;16.436;99.370;2023-02-01T13:58:18;114.93;;;65.93;;
12601;SDS011;30282;16.436;99.370;2023-02-01T14:00:49;115.93;;;64.63;;
12601;SDS011;30282;16.436;99.370;2023-02-01T14:03:19;119.53;;;64.93;;
12601;SDS011;30282;16.436;99.370;2023-02-01T14:09:18;104.77;;;57.97;;
12601;SDS011;30282;16.436;99.370;2023-02-01T14:17:57;88.27;;;58.50;;
12601;SDS011;30282;16.436;99.370;2023-02-01T14:23:26;120.77;;;60.30;;
12601;SDS011;30282;16.436;99.370;2023-02-01T14:26:03;103.23;;;60.17;;
12601;SDS011;30282;16.436;99.370;2023-02-01T14:28:45;121.43;;;66.03;;
12601;SDS011;30282;16.436;99.370;2023-02-01T14:34:20;101.43;;;63.53;;
12601;SDS011;30282;16.436;99.370;2023-02-01T14:36:56;114.23;;;70.10;;
12601;SDS011;30282;16.436;99.370;2023-02-01T14:39:31;201.47;;;93.20;;
12601;SDS011;30282;16.436;99.370;2023-02-01T14:42:20;230.13;;;110.17;;
12601;SDS011;30282;16.436;99.370;2023-02-01T14:44:52;225.03;;;103.73;;
12601;SDS011;30282;16.436;99.370;2023-02-01T14:47:30;218.47;;;106.20;;
12601;SDS011;30282;16.436;99.370;2023-02-01T14:52:58;168.90;;;89.27;;
12601;SDS011;30282;16.436;99.370;2023-02-01T14:55:38;123.10;;;77.60;;
12601;SDS011;30282;16.436;99.370;2023-02-01T14:58:13;139.47;;;77.70;;
12601;SDS011;30282;16.436;99.370;2023-02-01T15:00:50;153.50;;;84.47;;
12601;SDS011;30282;16.436;99.370;2023-02-01T15:06:20;143.77;;;79.93;;
12601;SDS011;30282;16.436;99.370;2023-02-01T15:08:54;148.77;;;78.10;;
12601;SDS011;30282;16.436;99.370;2023-02-01T15:11:25;148.67;;;84.97;;
12601;SDS011;30282;16.436;99.370;2023-02-01T15:13:57;151.93;;;88.47;;
12601;SDS011;30282;16.436;99.370;2023-02-01T15:16:26;197.90;;;103.80;;